Time;durP1;ratioP1;P1;durP2;ratioP2;P2;SDS_P1;SDS_P2;PMS_P1;PMS_P2;Temp;Humidity;BMP_temperature;BMP_pressure;BME280_temperature;BME280_humidity;BME280_pressure;Samples;Min_cycle;Max_cycle;Signal;HPM_P1;HPM_P2
2021/12/08 00:00:28;;;;;;;53.13;18.20;;;;;;;-6.38;90.79;100159.84;4076571;29;20369;-78
2021/12/08 00:02:55;;;;;;;50.77;18.03;;;;;;;-6.49;91.38;100159.31;4057855;29;22289;-77
2021/12/08 00:05:22;;;;;;;51.00;19.07;;;;;;;-6.52;91.55;100151.63;4069356;29;20246;-78
2021/12/08 00:07:49;;;;;;;49.17;18.40;;;;;;;-6.45;91.62;100147.97;4064240;29;20249;-77
2021/12/08 00:13:05;;;;;;;53.33;18.27;;;;;;;-6.41;92.14;100154.75;4081268;29;21491;-77
2021/12/08 00:15:34;;;;;;;52.13;18.63;;;;;;;-6.31;91.80;100151.91;4062130;29;20326;-77
2021/12/08 00:18:02;;;;;;;52.07;18.70;;;;;;;-6.30;90.87;100153.59;4065545;29;20243;-77
2021/12/08 00:20:31;;;;;;;48.40;18.23;;;;;;;-6.28;91.30;100159.56;4054546;29;20246;-79
2021/12/08 00:22:59;;;;;;;40.67;16.97;;;;;;;-6.24;90.87;100159.44;4068093;29;20418;-77
2021/12/08 00:25:27;;;;;;;49.53;18.70;;;;;;;-6.29;90.50;100156.16;4067235;29;22328;-76
2021/12/08 00:27:53;;;;;;;48.97;17.80;;;;;;;-6.25;90.54;100162.94;4056015;29;20247;-78
2021/12/08 00:30:20;;;;;;;43.53;17.73;;;;;;;-6.34;89.95;100164.91;4065017;29;20233;-78
2021/12/08 00:32:47;;;;;;;45.97;17.50;;;;;;;-6.41;90.46;100166.88;4070851;29;20295;-76
2021/12/08 00:35:14;;;;;;;52.93;18.73;;;;;;;-6.45;91.04;100170.44;4075304;29;20565;-78
2021/12/08 00:37:41;;;;;;;47.40;18.07;;;;;;;-6.33;91.00;100169.22;4067669;29;21449;-77
2021/12/08 00:40:12;;;;;;;41.73;16.60;;;;;;;-6.41;90.28;100172.88;4075301;29;21329;-80
2021/12/08 00:42:38;;;;;;;48.30;18.57;;;;;;;-6.35;90.71;100171.00;4060393;29;20268;-74
2021/12/08 00:45:06;;;;;;;49.00;18.40;;;;;;;-6.35;90.99;100171.00;4067541;29;21095;-80
2021/12/08 00:47:33;;;;;;;45.73;17.50;;;;;;;-6.34;91.65;100168.38;4060579;29;22898;-78
2021/12/08 00:49:59;;;;;;;50.20;18.53;;;;;;;-6.30;91.28;100180.31;4068796;29;20250;-78
2021/12/08 00:52:28;;;;;;;45.50;18.60;;;;;;;-6.32;91.09;100171.78;4071584;29;20239;-79
2021/12/08 00:54:55;;;;;;;51.10;19.17;;;;;;;-6.26;90.95;100170.72;4070421;29;21344;-80
2021/12/08 00:57:22;;;;;;;43.87;17.20;;;;;;;-6.28;90.89;100159.56;4067347;29;20242;-78
2021/12/08 00:59:49;;;;;;;47.20;17.43;;;;;;;-6.22;91.04;100169.75;4071926;29;20416;-76
2021/12/08 01:02:25;;;;;;;47.00;17.90;;;;;;;-6.17;90.54;100160.09;4068515;29;20597;-79
2021/12/08 01:04:51;;;;;;;45.97;18.73;;;;;;;-6.15;90.89;100168.69;4074494;29;23033;-77
2021/12/08 01:07:18;;;;;;;46.47;18.23;;;;;;;-6.26;90.42;100162.97;4070177;29;20292;-79
2021/12/08 01:09:46;;;;;;;45.73;17.43;;;;;;;-6.42;90.36;100171.16;4061825;29;21744;-75
2021/12/08 01:12:13;;;;;;;45.23;18.30;;;;;;;-6.49;90.07;100172.25;4074485;29;20435;-77
2021/12/08 01:14:40;;;;;;;40.53;16.17;;;;;;;-6.49;90.46;100161.88;4066255;29;20308;-76
2021/12/08 01:17:07;;;;;;;41.30;16.47;;;;;;;-6.57;90.08;100158.69;4063097;29;20336;-77
2021/12/08 01:19:33;;;;;;;46.23;17.67;;;;;;;-6.75;91.02;100156.63;4069989;29;20250;-77
2021/12/08 01:22:00;;;;;;;45.70;17.20;;;;;;;-6.66;91.36;100146.00;4052135;29;20251;-77
2021/12/08 01:24:26;;;;;;;45.27;17.23;;;;;;;-6.69;91.25;100146.09;4060423;29;23694;-76
2021/12/08 01:26:55;;;;;;;46.77;17.77;;;;;;;-6.74;91.16;100159.16;4084276;29;20238;-77
2021/12/08 01:29:21;;;;;;;45.40;17.43;;;;;;;-6.68;91.30;100163.31;4058613;29;20362;-79
2021/12/08 01:31:48;;;;;;;52.10;18.97;;;;;;;-6.63;91.33;100161.44;4066463;29;20401;-77
2021/12/08 01:34:16;;;;;;;49.10;19.73;;;;;;;-6.45;91.44;100157.50;4063273;29;20273;-77
2021/12/08 01:36:42;;;;;;;50.57;19.47;;;;;;;-6.48;90.90;100158.44;4074157;29;20286;-80
2021/12/08 01:39:09;;;;;;;53.73;20.60;;;;;;;-6.48;91.10;100150.66;4073239;29;21258;-78
2021/12/08 01:41:36;;;;;;;52.80;19.30;;;;;;;-6.55;91.23;100156.06;4062489;29;20318;-79
2021/12/08 01:46:51;;;;;;;61.33;20.67;;;;;;;-6.53;91.26;100141.31;4091551;29;20978;-78
2021/12/08 01:49:19;;;;;;;54.23;20.43;;;;;;;-6.59;91.64;100148.38;4077550;29;20241;-78
2021/12/08 01:51:45;;;;;;;54.97;20.93;;;;;;;-6.59;91.76;100137.19;4062695;29;20242;-76
2021/12/08 01:54:12;;;;;;;54.73;20.87;;;;;;;-6.70;91.98;100134.03;4081878;29;20568;-76
2021/12/08 01:56:39;;;;;;;52.77;21.00;;;;;;;-6.75;92.12;100122.97;4064360;29;20363;-78
2021/12/08 01:59:09;;;;;;;66.20;23.90;;;;;;;-6.71;92.31;100116.84;4070889;29;20403;-77
2021/12/08 02:01:37;;;;;;;58.77;22.90;;;;;;;-6.58;92.29;100107.81;4072093;29;21405;-76
2021/12/08 02:04:06;;;;;;;59.93;22.60;;;;;;;-6.60;91.88;100114.78;4072856;29;22214;-79
2021/12/08 02:06:36;;;;;;;61.17;21.53;;;;;;;-6.61;92.27;100105.31;4057879;29;20261;-76
2021/12/08 02:09:05;;;;;;;55.97;22.07;;;;;;;-6.63;92.20;100101.94;4061095;29;26659;-76
2021/12/08 02:11:38;;;;;;;65.33;23.20;;;;;;;-6.77;92.92;100093.72;4059895;29;23063;-77
2021/12/08 02:14:05;;;;;;;61.57;23.03;;;;;;;-6.76;93.12;100088.50;4057940;29;20239;-78
2021/12/08 02:16:32;;;;;;;58.47;23.10;;;;;;;-6.69;93.09;100089.19;4071459;29;20357;-77
2021/12/08 02:19:00;;;;;;;58.00;22.87;;;;;;;-6.67;93.19;100088.25;4048887;29;22642;-75
2021/12/08 02:21:37;;;;;;;63.93;24.50;;;;;;;-6.76;93.20;100088.50;4066971;29;20241;-77
2021/12/08 02:24:07;;;;;;;60.60;22.90;;;;;;;-6.84;93.95;100093.88;4068554;29;20264;-77
2021/12/08 02:26:35;;;;;;;60.53;22.67;;;;;;;-6.81;93.55;100099.00;4060565;29;20291;-76
2021/12/08 02:29:06;;;;;;;60.10;22.20;;;;;;;-6.88;93.61;100099.22;4073300;29;20307;-77
2021/12/08 02:31:46;;;;;;;56.37;22.07;;;;;;;-6.86;93.78;100098.28;4065451;29;20234;-77
2021/12/08 02:48:01;;;;;;;55.23;21.87;;;;;;;-6.61;93.05;100082.03;4066299;29;21776;-77
2021/12/08 02:50:35;;;;;;;60.57;23.97;;;;;;;-6.72;93.12;100078.91;4068309;29;20233;-79
2021/12/08 02:53:03;;;;;;;62.80;22.67;;;;;;;-6.78;93.52;100082.53;4069975;29;20246;-79
2021/12/08 02:55:30;;;;;;;64.53;23.40;;;;;;;-6.78;93.75;100089.44;4065658;29;20351;-77
2021/12/08 02:57:59;;;;;;;52.70;20.77;;;;;;;-6.78;93.57;100089.44;4069257;29;20450;-79
2021/12/08 03:00:27;;;;;;;70.77;24.33;;;;;;;-6.81;93.70;100087.81;4058220;29;21902;-78
2021/12/08 03:02:56;;;;;;;64.10;23.23;;;;;;;-6.83;94.12;100087.84;4057368;29;20235;-76
2021/12/08 03:05:23;;;;;;;60.80;23.50;;;;;;;-6.61;94.29;100097.56;4056632;29;22923;-77
2021/12/08 03:07:50;;;;;;;66.33;23.63;;;;;;;-6.58;93.81;100092.28;4089268;29;20313;-76
2021/12/08 03:10:19;;;;;;;57.63;24.57;;;;;;;-6.51;93.21;100098.13;4082892;29;20246;-77
2021/12/08 03:12:47;;;;;;;55.87;23.00;;;;;;;-6.54;93.09;100104.25;4073342;29;20309;-78
2021/12/08 03:15:14;;;;;;;57.67;22.67;;;;;;;-6.42;92.90;100103.88;4065618;29;22359;-76
2021/12/08 03:17:41;;;;;;;54.90;21.77;;;;;;;-6.50;92.45;100102.44;4059185;29;20275;-78
2021/12/08 03:20:11;;;;;;;62.03;21.97;;;;;;;-6.43;92.38;100109.97;4057345;29;21152;-77
2021/12/08 03:22:43;;;;;;;50.90;20.77;;;;;;;-6.62;91.71;100101.06;4049221;29;25163;-76
2021/12/08 03:25:14;;;;;;;51.13;20.37;;;;;;;-6.66;92.43;100099.44;4055978;29;20343;-76
2021/12/08 03:27:51;;;;;;;51.87;21.00;;;;;;;-6.59;92.64;100103.53;4065088;29;20249;-77
2021/12/08 03:30:33;;;;;;;48.13;20.60;;;;;;;-6.52;92.62;100106.81;4058777;29;20289;-78
2021/12/08 03:33:00;;;;;;;52.20;20.00;;;;;;;-6.47;92.09;100105.75;4070393;29;22041;-76
2021/12/08 03:35:27;;;;;;;49.07;20.37;;;;;;;-6.66;92.25;100099.44;4064017;29;20238;-79
2021/12/08 03:37:54;;;;;;;52.67;20.30;;;;;;;-6.66;92.55;100099.44;4063148;29;20253;-77
2021/12/08 03:40:23;;;;;;;47.33;18.73;;;;;;;-6.72;92.49;100099.59;4071306;29;22200;-78
2021/12/08 03:42:53;;;;;;;47.03;19.57;;;;;;;-6.72;92.88;100090.13;4057063;29;20253;-77
2021/12/08 03:45:25;;;;;;;48.23;19.73;;;;;;;-6.84;93.04;100088.72;4066618;29;20308;-75
2021/12/08 03:48:00;;;;;;;45.23;18.10;;;;;;;-6.88;92.99;100089.72;4074221;29;20246;-75
2021/12/08 03:50:27;;;;;;;48.43;20.40;;;;;;;-6.82;93.25;100084.34;4066598;29;20246;-78
2021/12/08 03:52:54;;;;;;;49.13;20.70;;;;;;;-6.74;93.23;100091.03;4066294;29;26706;-78
2021/12/08 03:55:21;;;;;;;49.50;19.77;;;;;;;-6.62;93.19;100080.34;4069348;29;20249;-78
2021/12/08 03:57:47;;;;;;;46.40;18.40;;;;;;;-6.55;92.70;100083.59;4071087;29;20323;-75
2021/12/08 04:00:17;;;;;;;47.60;19.57;;;;;;;-6.53;92.44;100074.03;4081959;29;23152;-77
2021/12/08 04:02:45;;;;;;;47.77;19.00;;;;;;;-6.52;92.40;100071.41;4059446;29;20471;-79
2021/12/08 04:05:12;;;;;;;44.10;18.47;;;;;;;-6.56;92.39;100072.38;4057669;29;20288;-78
2021/12/08 04:07:44;;;;;;;52.97;19.93;;;;;;;-6.54;92.75;100070.59;4057949;29;20335;-77
2021/12/08 04:10:17;;;;;;;53.40;20.13;;;;;;;-6.52;92.58;100075.75;4061119;29;20323;-76
2021/12/08 04:12:50;;;;;;;47.27;18.20;;;;;;;-6.53;92.83;100080.06;4066288;29;20250;-80
2021/12/08 04:15:18;;;;;;;48.97;18.73;;;;;;;-6.54;92.29;100072.34;4069545;29;20253;-78
2021/12/08 04:17:48;;;;;;;46.50;17.47;;;;;;;-6.74;92.08;100065.16;4063653;29;20335;-76
2021/12/08 04:20:30;;;;;;;41.40;17.80;;;;;;;-6.86;93.34;100054.31;4072395;29;20256;-77
2021/12/08 04:22:58;;;;;;;40.30;17.77;;;;;;;-6.85;93.55;100049.97;4059168;29;21215;-77
2021/12/08 04:25:29;;;;;;;42.70;18.20;;;;;;;-7.06;94.23;100043.69;4076019;29;21104;-76
2021/12/08 04:27:58;;;;;;;45.83;17.40;;;;;;;-6.89;94.64;100046.63;4056815;29;20249;-79
2021/12/08 04:30:29;;;;;;;49.57;18.53;;;;;;;-6.89;94.07;100044.03;4056584;29;20253;-78
2021/12/08 04:32:56;;;;;;;43.00;18.53;;;;;;;-6.85;94.71;100047.38;4064268;29;20374;-77
2021/12/08 04:35:24;;;;;;;44.47;18.50;;;;;;;-6.91;94.26;100048.41;4061176;29;21449;-77
2021/12/08 04:37:54;;;;;;;47.27;18.77;;;;;;;-6.98;93.79;100049.47;4068344;29;20888;-78
2021/12/08 04:41:02;;;;;;;50.20;18.23;;;;;;;-6.98;94.29;100040.88;4054088;29;20245;-76
2021/12/08 04:43:28;;;;;;;46.67;18.30;;;;;;;-6.94;93.95;100045.06;4067819;29;20330;-75
2021/12/08 04:46:13;;;;;;;54.37;19.93;;;;;;;-6.92;94.14;100040.69;4062056;29;21703;-80
2021/12/08 05:00:27;;;;;;;45.67;17.63;;;;;;;-7.08;93.10;100040.28;4062608;29;20682;-76
2021/12/08 05:08:12;;;;;;;47.93;17.90;;;;;;;-7.25;94.18;100040.78;4078738;29;20237;-79
2021/12/08 05:10:40;;;;;;;46.87;18.93;;;;;;;-7.20;95.21;100027.72;4066303;29;20323;-75
2021/12/08 05:13:11;;;;;;;48.73;19.53;;;;;;;-7.34;94.84;100026.34;4045190;29;20657;-76
2021/12/08 05:15:47;;;;;;;48.97;18.73;;;;;;;-7.31;95.18;100023.69;4062313;29;20242;-77
2021/12/08 05:18:20;;;;;;;45.77;18.53;;;;;;;-7.42;95.32;100030.91;4067647;29;20425;-77
2021/12/08 05:20:52;;;;;;;50.47;20.43;;;;;;;-7.34;95.90;100031.53;4069366;29;22095;-77
2021/12/08 05:23:29;;;;;;;52.80;19.53;;;;;;;-7.25;95.58;100039.03;4062298;29;20249;-80
2021/12/08 05:25:59;;;;;;;54.90;21.03;;;;;;;-7.24;95.67;100045.88;4092604;29;21293;-78
2021/12/08 05:28:27;;;;;;;58.67;21.47;;;;;;;-7.32;95.50;100047.84;4092620;29;20311;-77
2021/12/08 05:31:02;;;;;;;63.67;21.93;;;;;;;-7.23;95.73;100050.19;4052158;29;20270;-79
2021/12/08 05:33:31;;;;;;;47.57;20.17;;;;;;;-7.13;95.70;100055.09;4058071;29;20254;-77
2021/12/08 05:35:58;;;;;;;55.67;21.50;;;;;;;-6.97;94.39;100053.75;4089170;29;21601;-77
2021/12/08 05:38:25;;;;;;;51.63;20.10;;;;;;;-7.01;93.84;100047.81;4068140;29;22288;-77
2021/12/08 05:40:56;;;;;;;52.77;20.67;;;;;;;-7.09;93.58;100054.13;4073351;29;20306;-78
2021/12/08 05:43:24;;;;;;;48.77;20.40;;;;;;;-7.04;93.10;100052.25;4062554;29;20247;-76
2021/12/08 05:45:52;;;;;;;49.27;19.07;;;;;;;-7.10;92.45;100048.06;4075737;29;20292;-77
2021/12/08 05:48:20;;;;;;;46.17;17.93;;;;;;;-7.10;92.17;100050.66;4068000;29;20356;-78
2021/12/08 05:50:52;;;;;;;45.10;18.97;;;;;;;-7.13;92.25;100055.09;4071221;29;20291;-77
2021/12/08 05:53:19;;;;;;;49.63;18.83;;;;;;;-7.03;92.36;100053.94;4053291;29;20241;-75
2021/12/08 05:55:47;;;;;;;46.33;18.20;;;;;;;-6.94;91.26;100053.66;4074362;29;20246;-76
2021/12/08 05:58:16;;;;;;;47.60;17.40;;;;;;;-7.18;89.63;100041.44;4075362;29;20408;-78
2021/12/08 06:00:53;;;;;;;38.53;17.23;;;;;;;-7.21;89.86;100039.81;4045361;29;25513;-76
2021/12/08 06:03:19;;;;;;;43.50;17.60;;;;;;;-7.23;89.38;100033.81;4072852;29;20323;-77
2021/12/08 06:05:48;;;;;;;40.40;16.40;;;;;;;-7.41;89.15;100034.31;4068441;29;21090;-79
2021/12/08 06:08:16;;;;;;;39.37;15.57;;;;;;;-7.45;89.12;100036.97;4058188;29;20245;-76
2021/12/08 06:10:43;;;;;;;37.63;16.00;;;;;;;-7.55;88.20;100038.13;4059346;29;20301;-77
2021/12/08 06:13:13;;;;;;;42.67;16.57;;;;;;;-7.61;88.64;100040.00;4068870;29;20525;-76
2021/12/08 06:15:42;;;;;;;40.23;16.77;;;;;;;-7.79;88.36;100037.03;4060841;29;23614;-77
2021/12/08 06:18:10;;;;;;;46.53;19.17;;;;;;;-7.93;88.64;100033.97;4061156;29;20431;-77
2021/12/08 06:20:37;;;;;;;48.07;16.97;;;;;;;-7.94;89.59;100029.66;4072205;29;22342;-76
2021/12/08 06:23:07;;;;;;;40.17;17.07;;;;;;;-7.75;90.21;100037.78;4068380;29;22057;-77
2021/12/08 06:25:35;;;;;;;42.03;18.03;;;;;;;-7.53;88.88;100043.25;4059597;29;20280;-78
2021/12/08 06:28:03;;;;;;;43.23;17.20;;;;;;;-7.58;87.28;100045.97;4054687;29;20231;-77
2021/12/08 06:30:31;;;;;;;42.23;17.70;;;;;;;-7.55;87.45;100060.53;4061634;29;20242;-78
2021/12/08 06:32:58;;;;;;;42.17;16.57;;;;;;;-7.62;87.39;100059.00;4081710;29;20250;-77
2021/12/08 06:35:40;;;;;;;38.73;15.27;;;;;;;-7.70;87.06;100061.78;4053128;29;20318;-79
2021/12/08 06:38:08;;;;;;;40.90;15.40;;;;;;;-7.62;87.52;100070.19;4070801;29;20397;-78
2021/12/08 06:41:07;;;;;;;39.73;15.77;;;;;;;-7.61;86.64;100076.19;4071701;29;20245;-77
2021/12/08 06:43:43;;;;;;;40.67;16.33;;;;;;;-7.59;86.10;100070.09;4053778;29;23552;-75
2021/12/08 06:46:12;;;;;;;37.17;14.53;;;;;;;-7.78;85.50;100080.03;4055975;29;20344;-77
2021/12/08 06:48:43;;;;;;;36.83;13.97;;;;;;;-7.86;84.73;100079.41;4073595;29;22187;-77
2021/12/08 06:51:15;;;;;;;36.70;14.67;;;;;;;-8.00;85.09;100091.81;4036205;29;20245;-77
2021/12/08 06:53:47;;;;;;;32.83;14.50;;;;;;;-8.13;85.83;100094.66;4075101;29;20253;-76
2021/12/08 06:56:19;;;;;;;34.27;13.63;;;;;;;-8.10;86.21;100097.19;4071734;29;20250;-81
2021/12/08 06:58:50;;;;;;;39.17;15.33;;;;;;;-8.07;86.16;100097.09;4069785;29;20846;-75
2021/12/08 07:01:29;;;;;;;37.20;15.77;;;;;;;-8.08;86.14;100089.38;4058359;29;20419;-77
2021/12/08 07:04:14;;;;;;;36.43;15.43;;;;;;;-8.08;86.36;100103.16;4082281;29;20720;-76
2021/12/08 07:06:59;;;;;;;40.77;15.03;;;;;;;-8.08;86.27;100113.50;4067440;29;20543;-76
2021/12/08 07:09:40;;;;;;;34.73;15.00;;;;;;;-7.96;86.80;100116.63;4051506;29;22406;-77
2021/12/08 07:12:38;;;;;;;39.73;15.33;;;;;;;-7.90;86.00;100112.19;4062590;29;21341;-76
2021/12/08 07:15:20;;;;;;;38.77;15.30;;;;;;;-7.91;85.80;100117.41;4058624;29;20252;-75
2021/12/08 07:17:51;;;;;;;39.33;14.57;;;;;;;-7.91;85.35;100126.00;4071896;29;20234;-77
2021/12/08 07:23:13;;;;;;;33.63;13.90;;;;;;;-7.86;85.72;100123.31;4068104;29;20291;-76
2021/12/08 07:25:40;;;;;;;37.17;14.27;;;;;;;-7.82;85.75;100121.47;4072376;29;20247;-74
2021/12/08 07:28:07;;;;;;;33.00;13.70;;;;;;;-7.84;85.70;100113.78;4061897;29;21580;-77
2021/12/08 07:31:04;;;;;;;33.77;14.87;;;;;;;-7.82;85.99;100117.16;4058689;29;23524;-76
2021/12/08 07:33:31;;;;;;;34.87;15.07;;;;;;;-7.65;86.34;100107.28;4052486;29;22177;-75
2021/12/08 07:36:03;;;;;;;35.07;13.43;;;;;;;-7.54;85.90;100113.88;4039143;29;21803;-74
2021/12/08 07:38:32;;;;;;;34.17;13.13;;;;;;;-7.38;84.82;100110.03;4047718;29;20245;-76
2021/12/08 07:41:08;;;;;;;32.27;13.47;;;;;;;-7.43;83.63;100096.38;4056065;29;20243;-78
2021/12/08 07:43:38;;;;;;;33.30;12.53;;;;;;;-7.48;84.30;100091.34;4056530;29;20346;-75
2021/12/08 07:46:10;;;;;;;37.20;13.00;;;;;;;-7.44;84.37;100090.38;4074645;29;21660;-77
2021/12/08 07:48:45;;;;;;;37.50;13.30;;;;;;;-7.47;83.47;100081.84;4069713;29;25105;-76
2021/12/08 07:51:18;;;;;;;31.97;12.80;;;;;;;-7.52;84.22;100083.69;4066084;29;21375;-76
2021/12/08 07:53:45;;;;;;;33.60;13.20;;;;;;;-7.47;84.17;100099.94;4069965;29;20266;-74
2021/12/08 07:56:15;;;;;;;39.33;14.17;;;;;;;-7.53;84.16;100088.03;4057430;29;22399;-75
2021/12/08 07:58:43;;;;;;;41.53;14.03;;;;;;;-7.49;84.27;100102.56;4066769;29;20262;-76
2021/12/08 08:01:16;;;;;;;34.27;13.30;;;;;;;-7.57;83.75;100108.81;4083630;29;20412;-77
2021/12/08 08:03:44;;;;;;;32.97;12.53;;;;;;;-7.72;83.75;100100.56;4079417;29;20257;-78
2021/12/08 08:06:18;;;;;;;33.50;13.13;;;;;;;-7.64;84.59;100102.94;4080915;29;22801;-78
2021/12/08 08:08:45;;;;;;;45.00;14.07;;;;;;;-7.71;84.96;100102.25;4076381;29;20251;-83
2021/12/08 08:11:29;;;;;;;31.70;13.07;;;;;;;-7.57;85.07;100109.66;4066333;29;20576;-77
2021/12/08 08:13:57;;;;;;;31.33;12.47;;;;;;;-7.58;84.73;100110.56;4081221;29;20246;-79
2021/12/08 08:16:28;;;;;;;33.87;13.07;;;;;;;-7.61;85.15;100102.03;4074678;29;20255;-80
2021/12/08 08:19:04;;;;;;;37.13;14.83;;;;;;;-7.47;85.40;100099.94;4074408;29;20247;-77
2021/12/08 08:21:35;;;;;;;41.90;15.03;;;;;;;-7.54;84.87;100103.56;4066615;29;20261;-76
2021/12/08 08:24:03;;;;;;;32.80;13.47;;;;;;;-7.37;84.80;100105.72;4070589;29;23622;-76
2021/12/08 08:26:31;;;;;;;33.50;12.63;;;;;;;-7.27;84.70;100107.16;4065112;29;20737;-77
2021/12/08 08:28:57;;;;;;;35.40;13.70;;;;;;;-7.28;83.83;100101.16;4049948;29;21718;-74
2021/12/08 08:31:36;;;;;;;37.87;12.87;;;;;;;-7.26;84.02;100098.50;4061325;29;20317;-75
2021/12/08 08:34:03;;;;;;;40.27;14.37;;;;;;;-7.20;83.55;100097.53;4061725;29;21345;-76
2021/12/08 08:36:33;;;;;;;42.37;13.70;;;;;;;-7.20;83.78;100092.34;4049198;29;21478;-76
2021/12/08 08:39:24;;;;;;;40.60;14.70;;;;;;;-7.09;83.84;100095.50;4049169;29;20239;-73
2021/12/08 08:42:05;;;;;;;37.63;13.40;;;;;;;-6.98;83.93;100088.25;4085297;29;20298;-77
2021/12/08 08:44:54;;;;;;;35.07;13.27;;;;;;;-6.82;83.82;100089.53;4054047;29;20238;-74
2021/12/08 08:47:38;;;;;;;32.47;13.47;;;;;;;-6.65;83.40;100094.22;4061304;29;20326;-76
2021/12/08 08:50:08;;;;;;;36.07;14.50;;;;;;;-6.72;82.04;100084.94;4052302;29;20652;-76
2021/12/08 08:52:43;;;;;;;35.07;13.37;;;;;;;-6.61;82.01;100071.69;4058137;29;20265;-75
2021/12/08 08:55:37;;;;;;;39.97;14.03;;;;;;;-6.46;82.15;100060.88;4055942;29;20250;-77
2021/12/08 08:58:07;;;;;;;36.30;13.70;;;;;;;-6.60;81.47;100058.72;4065005;29;20256;-74
2021/12/08 09:00:46;;;;;;;37.83;14.90;;;;;;;-6.63;82.01;100053.59;4050551;29;20289;-76
2021/12/08 09:03:20;;;;;;;39.57;12.87;;;;;;;-6.50;81.85;100056.69;4077723;29;20282;-72
2021/12/08 09:06:09;;;;;;;38.70;13.37;;;;;;;-6.52;81.59;100049.88;4065017;29;20235;-78
2021/12/08 09:08:38;;;;;;;38.57;14.63;;;;;;;-6.59;81.72;100052.63;4075695;29;26286;-75
2021/12/08 09:11:15;;;;;;;35.37;13.67;;;;;;;-6.45;82.49;100051.38;4071769;29;22467;-80
2021/12/08 09:13:59;;;;;;;36.47;14.10;;;;;;;-6.25;81.60;100041.25;4098821;29;20251;-76
2021/12/08 09:16:33;;;;;;;37.93;13.37;;;;;;;-6.25;80.58;100028.28;4057418;29;22669;-76
2021/12/08 09:19:12;;;;;;;37.23;14.20;;;;;;;-6.22;80.61;100029.94;4074457;29;20470;-74
2021/12/08 09:21:55;;;;;;;34.27;13.37;;;;;;;-6.21;80.41;100023.84;4108343;29;23360;-76
2021/12/08 09:25:02;;;;;;;40.00;14.53;;;;;;;-6.23;80.78;100030.81;4081549;29;20417;-77
2021/12/08 09:27:36;;;;;;;34.70;13.60;;;;;;;-6.21;81.09;100029.03;4085532;29;20488;-79
2021/12/08 09:30:21;;;;;;;34.27;13.23;;;;;;;-6.18;81.31;100034.97;4072361;29;26478;-77
2021/12/08 09:32:52;;;;;;;42.33;15.53;;;;;;;-6.20;84.35;100035.91;4073007;29;20254;-81
2021/12/08 09:35:24;;;;;;;38.47;14.33;;;;;;;-6.02;82.11;100030.09;4078373;29;20254;-74
2021/12/08 09:37:56;;;;;;;40.57;14.53;;;;;;;-5.97;81.09;100029.97;4083846;29;20239;-76
2021/12/08 09:40:54;;;;;;;38.13;14.67;;;;;;;-5.96;80.90;100023.91;4059191;29;20244;-78
2021/12/08 09:43:25;;;;;;;35.17;13.83;;;;;;;-5.97;80.77;100017.88;4061395;29;20467;-77
2021/12/08 09:46:03;;;;;;;36.63;14.50;;;;;;;-6.15;81.32;100010.72;4066863;29;20233;-78
2021/12/08 09:48:30;;;;;;;33.93;13.20;;;;;;;-6.04;81.71;99994.81;4139143;29;25688;-81
2021/12/08 09:50:59;;;;;;;40.37;14.60;;;;;;;-6.13;82.48;99980.44;4071093;29;21459;-76
2021/12/08 09:53:26;;;;;;;35.80;14.20;;;;;;;-6.09;82.19;99974.22;4131251;29;21345;-78
2021/12/08 09:55:54;;;;;;;37.13;15.03;;;;;;;-6.12;81.82;99976.94;4065445;29;20268;-79
2021/12/08 09:58:21;;;;;;;39.37;14.77;;;;;;;-6.14;82.48;99978.72;4060446;29;21871;-81
2021/12/08 10:00:55;;;;;;;35.20;13.73;;;;;;;-6.10;82.43;99975.16;4076382;29;21654;-82
2021/12/08 10:03:23;;;;;;;41.47;16.00;;;;;;;-5.99;82.11;99965.28;4062479;29;20252;-77
2021/12/08 10:05:51;;;;;;;37.27;14.70;;;;;;;-5.88;81.75;99966.59;4068744;29;20254;-78
2021/12/08 10:08:18;;;;;;;38.97;14.17;;;;;;;-5.93;82.00;99967.59;4061542;29;21305;-80
2021/12/08 10:10:46;;;;;;;38.37;14.47;;;;;;;-5.80;81.62;99962.88;4095391;29;21743;-77
2021/12/08 10:13:14;;;;;;;34.97;14.53;;;;;;;-5.67;81.67;99973.63;4076774;29;22132;-78
2021/12/08 10:15:41;;;;;;;36.50;13.53;;;;;;;-5.68;81.04;99977.13;4044121;29;20256;-80
2021/12/08 10:18:09;;;;;;;35.73;12.97;;;;;;;-5.79;80.80;99980.09;4092816;29;20242;-80
2021/12/08 10:20:45;;;;;;;36.90;14.20;;;;;;;-5.81;82.08;99981.88;4063311;29;20250;-80
2021/12/08 10:23:27;;;;;;;39.00;15.10;;;;;;;-5.77;81.86;99967.94;4072928;29;20232;-79
2021/12/08 10:25:57;;;;;;;41.90;14.77;;;;;;;-5.59;81.65;99976.81;4090835;29;20466;-77
2021/12/08 10:28:30;;;;;;;36.07;14.63;;;;;;;-5.55;81.79;99975.81;4082675;29;20289;-80
2021/12/08 10:31:14;;;;;;;35.17;13.90;;;;;;;-5.59;82.28;99975.97;4053944;29;21684;-77
2021/12/08 10:34:03;;;;;;;44.27;15.57;;;;;;;-5.67;82.19;99990.94;4054984;29;21384;-79
2021/12/08 10:39:22;;;;;;;40.83;16.27;;;;;;;-5.43;81.95;99979.72;4104454;29;20252;-86
2021/12/08 10:42:33;;;;;;;45.73;15.17;;;;;;;-5.49;81.99;99968.72;4072994;29;20310;-87
2021/12/08 10:45:13;;;;;;;46.70;17.13;;;;;;;-5.70;83.00;99963.38;4075384;29;20309;-82
2021/12/08 10:47:53;;;;;;;48.37;17.83;;;;;;;-5.75;83.44;99960.09;4075713;29;22352;-82
2021/12/08 10:56:03;;;;;;;53.47;18.13;;;;;;;-5.62;83.91;99960.50;4076875;29;20245;-81
2021/12/08 10:58:33;;;;;;;47.83;18.20;;;;;;;-5.43;83.58;99960.69;4095901;29;20249;-81
2021/12/08 11:01:11;;;;;;;48.30;17.13;;;;;;;-5.61;83.76;99957.03;4074332;29;21726;-82
2021/12/08 11:03:39;;;;;;;48.07;16.93;;;;;;;-5.62;84.29;99958.78;4077477;29;20253;-81
2021/12/08 11:06:15;;;;;;;42.67;16.10;;;;;;;-5.49;84.07;99947.97;4071499;29;20317;-79
2021/12/08 11:08:44;;;;;;;39.23;15.93;;;;;;;-5.57;83.73;99946.50;4088031;29;20243;-83
2021/12/08 11:11:22;;;;;;;42.90;15.83;;;;;;;-5.59;84.12;99943.13;4116201;29;20245;-85
2021/12/08 11:13:53;;;;;;;45.40;15.03;;;;;;;-5.54;84.36;99946.38;4100162;29;20379;-81
2021/12/08 11:16:22;;;;;;;47.13;16.93;;;;;;;-5.54;84.68;99935.19;4076146;29;25749;-84
2021/12/08 11:18:58;;;;;;;44.80;16.97;;;;;;;-5.53;84.76;99934.25;4072525;29;20242;-82
2021/12/08 11:21:36;;;;;;;46.37;17.60;;;;;;;-5.39;84.51;99937.19;4074500;29;26510;-83
2021/12/08 11:24:12;;;;;;;46.23;18.03;;;;;;;-5.40;83.94;99934.66;4075809;29;20249;-82
2021/12/08 11:26:50;;;;;;;49.90;18.00;;;;;;;-5.31;84.38;99922.22;4075108;29;20298;-83
2021/12/08 11:29:23;;;;;;;46.63;18.23;;;;;;;-5.42;84.21;99920.91;4093337;29;20263;-84
2021/12/08 11:31:59;;;;;;;55.40;18.77;;;;;;;-5.45;84.87;99921.03;4070744;29;22102;-83
2021/12/08 11:34:35;;;;;;;51.13;17.83;;;;;;;-5.33;85.15;99905.03;4067054;29;20277;-85
2021/12/08 11:37:13;;;;;;;51.53;18.73;;;;;;;-5.31;84.88;99911.84;4078324;29;20250;-80
2021/12/08 11:39:51;;;;;;;55.33;19.60;;;;;;;-5.22;84.83;99915.84;4065418;29;21856;-83
2021/12/08 11:42:21;;;;;;;48.70;18.80;;;;;;;-5.23;84.70;99915.88;4078519;29;20280;-83
2021/12/08 11:44:53;;;;;;;49.73;18.97;;;;;;;-5.19;84.87;99914.88;4106020;29;20344;-84
2021/12/08 11:47:28;;;;;;;47.40;18.80;;;;;;;-5.02;84.47;99909.03;4058365;29;20348;-82
2021/12/08 11:50:00;;;;;;;47.67;18.60;;;;;;;-4.96;83.66;99904.44;4089835;29;20356;-79
2021/12/08 11:52:29;;;;;;;45.47;19.57;;;;;;;-4.94;83.88;99891.41;4092839;29;20633;-80
2021/12/08 11:55:02;;;;;;;43.13;17.43;;;;;;;-4.85;83.58;99885.84;4118961;29;20242;-79
2021/12/08 11:57:37;;;;;;;46.80;17.47;;;;;;;-4.81;82.98;99878.78;4067397;29;20310;-86
2021/12/08 12:00:22;;;;;;;43.50;17.70;;;;;;;-4.95;82.98;99892.31;4068884;29;20249;-82
2021/12/08 12:02:56;;;;;;;46.70;17.87;;;;;;;-4.92;83.33;99881.81;4076049;29;20253;-80
2021/12/08 12:05:41;;;;;;;33.83;13.93;;;;;;;-5.04;83.62;99877.09;4113035;29;20827;-79
2021/12/08 12:08:10;;;;;;;45.17;15.57;;;;;;;-5.07;83.67;99883.25;4092545;29;21900;-80
2021/12/08 12:10:42;;;;;;;35.00;14.57;;;;;;;-5.16;84.02;99886.22;4066922;29;24518;-78
2021/12/08 12:13:10;;;;;;;39.53;16.27;;;;;;;-5.12;83.73;99885.19;4058864;29;20233;-79
2021/12/08 12:15:41;;;;;;;42.13;15.70;;;;;;;-5.12;84.44;99878.25;4060932;29;20293;-77
2021/12/08 12:18:08;;;;;;;35.67;14.80;;;;;;;-4.98;84.19;99879.47;4084325;29;20653;-76
2021/12/08 12:20:57;;;;;;;35.70;15.10;;;;;;;-4.89;83.41;99885.13;4060220;29;20672;-77